Thames Meander Marathon & Half on Saturday 11th March 2017

Event : Marathon, type / distance : Trail / 42.2k

at Hawker Centre, Kingston

Organised by Hermes Running

Filters

FirstnameSurnameGenderCategoryClub/TeamBib No.Sort by
Save as PDF
Pos-
ition
Bib-
No.
Finish
Time
Chip
Time
NameGen-
der
Cat-
egory
Club or TeamRank
1171 02:52:2502:52:25NEIL MARTIN M M40 OVERTON HARRIERS & AC 1
2215 02:53:0902:53:08JONATHAN RATCLIFFE M M40 HERNE HILL HARRIERS 2
3132 02:56:3402:56:31GEOFFREY HOWELL M SM 3
4167 02:58:0402:58:04NICK MARRIAGE M SM FULHAM RUNNING CLUB 4
548 02:59:2702:59:26MARIUSZ CIOSEK M SM 5
6275 03:00:2203:00:21MICHAEL WHYTE M M50 BRIGHTON PHOENIX TRIATHLON CLUB 6
7173 03:07:1103:07:09DAVID MATTHEW M M40 7
8258 03:08:3703:08:34WILL TUCKETT M SM VALE OF AYLESBURY AC 8
9178 03:09:2903:09:22ALAN MIDDLEBROOK M M40 9
1046 03:10:5303:10:52THOMAS CHEETHAM M M50 HERCULES WIMBLEDON AC 10
1118 03:12:3503:12:29STUART BAYLEY-DAINTON M M50 BECKENHAM RC 11
1269 03:12:3803:12:36KEVIN DAY M M50 12
13251 03:14:5103:14:49CHARLIE THOMAS M SM 13
14244 03:15:1503:15:09WILL SUTTON M SM WEST4HARRIERS 14
15169 03:16:3303:16:32IAIN MARTIN M M50 TEAM PROFEET 15
1693 03:16:3903:16:35JONATHAN GILMORE M SM 16
17212 03:16:5703:16:50BOB PRITCHARD M SM 17
1889 03:17:0603:17:01LUIGI FUMERO M M40 18
19124 03:17:2303:17:20SIMON HILLIARD M SM 19
2042 03:17:2903:17:28EDWARD CATMUR M SM THAMES HARE AND HOUNDS 20
21246 03:17:3803:17:29ANDREW TAIT M SM WARE JOGGERS 21
2256 03:18:5503:18:55PETE CORNISH M M50 22
23228 03:19:1803:19:09GRANT RUSSELL M M40 COMET TRIATHLON CLUB 23
2414 03:21:1603:21:04MARK BARLOW M M40 24
25204 03:22:1003:22:05SAMANTHA PICKFORD F W35 WIMBLEDON WINDMILERS 25
26185 03:23:2303:23:16CAREL M_LLER M SM 26
27196 03:23:4603:23:38JONATHAN ORMEROD M SM 27
2826 03:24:5603:24:49BENJAMIN BOWEN M SM 28
2940 03:25:3703:25:35SIMON CARSON-JONES M M40 FARNHAM TRIATHLON CLUB 29
30152 03:25:4503:25:41DAMIEN LANE M M40 HIGHGATE HARRIERS 30
31168 03:26:1103:26:07ANDREW MARSHMAN M M40 31
32317 03:26:5803:26:38GORDON MEAD M SM 32
33272 03:30:2503:30:20LIAM WHELAN M M50 BARNES RUNNERS 33
34147 03:33:0103:32:46WERNER KERSCHL M M40 CLAPHAM CHASERS 34
35227 03:33:1103:33:02JAMES RUSSELL M M40 COMET TRIATHLON CLUB 35
36154 03:33:3103:33:31ANNA LEES F W35 36
37100 03:34:1103:34:04CHRIS GRAF M M40 37
38280 03:35:1503:35:06GAIL WINTER F W45 WATFORD JOGGERS 38
3979 03:35:5603:35:48MARTIN ENGLAND M M50 CASTLE POINT JOGGERS 39
40226 03:37:2203:37:02JAMIE RUSSELL M SM DARTFORD ROAD RUNNERS 40
41187 03:37:4103:37:35CHRIS MURPHY M M40 41
42219 03:38:2503:38:17TREVOR ROBERTS M M40 42
43183 03:38:2803:38:25ANTHONY MOORE M M40 BILLERICAY STRIDERS 43
44174 03:38:4603:38:34STEVE MAY M No Info 100 MARATHON CLUB 44
4535 03:39:0403:38:47ROBERT BURLEIGH M SM 45
46270 03:39:2103:39:11ELIOTT WELLS M SM 46
47231 03:39:3203:39:23PHILIP SCRASE M M50 ALTON RUNNERS 47
4850 03:39:4303:39:32PHILIP COLLINS M M40 48
49319 03:39:4903:39:40CHRISTOPHER TWISELTON M SM 49
50162 03:40:3203:40:22KEITH LUXON M M40 BENFLEET RC 50
51253 03:40:4503:40:38LENA THOMPSON F W35 51
52155 03:40:5003:40:48MICHELLE LENNON F W45 DULWICH RUNNERS 52
53189 03:41:3303:41:26MYOORAN NATHAN M SM 53
54160 03:41:4903:41:39CRAIG LOVELOCK M M40 FETCH EVERYONE 54
55217 03:42:0803:41:56MARVIN REYNOLDS M SM 55
56218 03:42:2603:42:19CHRIS RICHARDSON M M40 CDR 56
57221 03:42:4603:42:36PAUL ROBINS M SM 57
58146 03:44:4303:44:28JORDAN KENNEDY F SW 58
59248 03:44:5703:44:40TARA TAYLOR F W45 TUNBRIDGE WELLS HARRIERS 59
6077 03:45:3603:45:31LEE EDWARDS M M40 PLUMSTEAD RUNNERS 60
6162 03:46:4703:46:39LASZLO CSIBI M M40 61
6298 03:48:4203:48:39DEWI GOULD M JM 62
63134 03:49:3003:48:59DAVID IRELAND M M40 63
6424 03:49:3803:49:15SUNJAY BHOGAL M M40 STRIDERS OF CROYDON 64
65254 03:49:4403:49:33ALEX THORNTON M SM 65
6660 03:49:4803:49:46ROB CRAWFORD M M40 66
67182 03:49:5103:49:47JAMES MOORE M SM 67
68237 03:50:1303:50:01MATT SOWTON M SM RANELAGH HARRIERS 68
69115 03:50:2403:50:19SIMON HASSETT M M40 DARTFORD ROAD RUNNERS 69
70236 03:51:0503:50:49PETE SOVEGJARTO M M50 70
7115 03:51:2503:51:13DAVID BARR M M40 100 MARATHON CLUB 71
7229 03:52:0803:51:59NICK BRACEY M M50 AVON VALLEY RUNNERS 72
73159 03:53:2103:52:56DEAN LONGMAN M M40 YAXLEY RUNNERS 73
7443 03:53:4003:53:31DEAN CHAMBERS M M50 100 MARATHON CLUB 74
75108 03:54:0603:53:56ALAN HARESNAPE M M50 75
7647 03:54:0703:54:02NOELEEN CHURCHILL F W45 76
77249 03:54:2403:54:13JAMES TEMPERLEY M M40 77
7849 03:54:3103:54:17JANET COBBY F W55 100 MARATHON CLUB 78
79157 03:54:3103:54:16DAVID LEWIS M M50 100 MARATHON CLUB 79
8039 03:54:5703:54:46NEIL CARRINGTON M M40 THE STRAGGLERS RC 80
81136 03:55:5403:55:47STEVE JACKSON M M40 81
8212 03:55:5803:55:35CHRISTOPHER BAKER M SM 82
83105 03:56:1203:56:01RAY GURVITZ M M50 83
84107 03:56:2103:56:02TAKASHI HARAZAWA M M50 84
855 03:57:2703:57:25STEPHEN ALLISTON M M40 85
86114 03:57:2703:57:16NIGEL HARRISON M M40 IPSWICH JAFFA 86
87239 03:58:0403:57:55SIMON STAPLES M SM FETCH EVERYONE 87
88207 03:58:0703:57:46PAUL POWELL M M40 88
89110 03:58:3403:58:30PAUL HARPER M SM 89
9019 03:58:3603:58:33RICHARD BAZELEY M SM VALE OF AYLESBURY AC 90
91265 03:59:2103:59:08KIM WARNER M M60 WOKING AC 91
92263 03:59:4003:59:39JOHAN VON SOLMS M M40 92
93139 03:59:4503:59:39GEORGE JERRAM M SM 93
9488 03:59:4803:59:17GRAHAM FULLER M M60 94
95145 04:00:1603:59:58MICHAEL IAN KENNARD M M40 TUNBRIDGE WELLS HARRIERS 95
96163 04:01:1904:01:15ELAINE LYONS F SW 96
9782 04:01:5604:01:42ANNA FINN F W35 100 MARATHON CLUB 97
98283 04:02:0004:02:00ALAN YAN M SM 98
99125 04:02:3404:02:10JONATHAN HOBBS M M40 99
100130 04:03:5204:03:34SANDRA HOPKINS F W45 PORTSMOUTH JOGGERS 100
101180 04:05:4904:05:43PAUL MONAGHAN M SM READING ROADRUNNERS 101
102137 04:05:4904:05:44CAROLINE JACKSON F W35 READING ROADRUNNERS 102
10376 04:05:5904:05:38PAM DRIZEN F W35 WATFORD JOGGERS 103
10495 04:06:2204:06:14ANDREW GOLDING M M50 WARE JOGGERS 104
105213 04:07:2004:06:54MATTHEW PULLEN M M40 CAMBRIDGE TRIATHLON CLUB 105
106127 04:08:0604:07:55SUZANNE HOFF F W45 FLYERS SOUTHEND 106
1073 04:08:1404:07:59STEWART ALDEN M M40 WINCHESTER AND DISTRICT AC 107
108259 04:08:3104:08:24EDWARD TUCKETT M SM 108
109208 04:08:4704:08:32CHRIS POYNTER M M50 109
110103 04:08:5604:08:50ANDREW GRIFFITHS M SM 110
111211 04:09:1204:08:58PHIL PRITCHARD M SM 111
11231 04:09:2504:09:19MATTHEW BROOKER M M40 112
1136 04:09:2804:09:23PAOLO APICELLA M M40 113
114129 04:09:3704:09:12EMMA HOLMES F W35 MOJO 114
115278 04:10:1804:09:51SIMON WILLIAMS M SM 115
116301 04:10:5804:10:30ELLIOT WILKINSON M SM 116
11758 04:11:2504:11:13GLYN COTTON M M40 117
118141 04:11:3204:11:14CHRISTOPHER JONES M M50 BEARCAT RUNNING CLUB 118
11941 04:12:0704:11:47LAURA CARVER F SW 119
12030 04:12:2204:11:55PETE BRENNAN M M50 120
121116 04:12:5504:12:36RUTH HAVIS F W35 BILLERICAY STRIDERS 121
12257 04:13:1204:12:54ELLEN COTTOM F W35 100 MARATHON CLUB 122
12378 04:13:1404:12:52ROGER EMSLIE M M40 123
124150 04:13:1404:12:52GUY LAISTER M SM EPSOM & EWELL HARRIERS 124
12596 04:14:1704:14:02SHELLEY GOOCH-SMIH F W35 TCW 125
126222 04:14:1704:14:03JASON ROGERS M M40 TCW 126
127102 04:15:0204:14:47RICHARD GRIFFIN M M60 BLACKHEATH AND BROMLEY HARRIERS 127
12883 04:15:1104:14:57MICHAEL FIRMSTONE M SM READING ROADRUNNERS 128
12999 04:15:1404:14:50GWYN GOULD M M50 129
130245 04:15:4604:15:24SEAN SYMONDS M M50 BUNGAY BLACK DOGS 130
131165 04:15:5904:15:35ALISON MACOWAN F W45 PETTS WOOD RUNNERS 131
1327 04:16:0404:15:51STEVEN ARCHER M M40 132
13370 04:16:1004:15:56VARINA DELRIEU F W35 TRAIL RUNNING ASSOCIATION 133
134238 04:17:5004:17:38CLAIRE SPENDLEY F SW 134
135274 04:17:5604:17:35ALLY WHITLOCK F W35 STRIDERS OF CROYDON 135
13661 04:18:2104:18:09DUNCAN CROSBIE M M40 THE STRAGGLERS RC 136
137223 04:18:2204:17:42RUSS ROOK M M40 137
138282 04:18:2504:18:11LINDA WOODARD F W45 FELIXSTOWE ROAD RUNNERS 138
139118 04:18:3104:18:10PAUL HAYLER M M40 139
140138 04:19:3204:19:15CLARE JAMIESON F W35 140
141191 04:19:4204:19:12EDDIE NEUVILLE M M40 141
142119 04:20:1004:19:42CLIVE HEARN M M40 100 MARATHON CLUB 142
143273 04:20:1704:19:49ROBERT WHITEHEAD M M40 143
144188 04:21:0704:11:17JANOS NAGY M SM 144
145257 04:23:3404:23:26MARK TRAVERS M M50 ST ALBANS STRIDERS 145
146255 04:25:4304:25:16PAUL TONKS M M40 146
14725 04:26:0504:25:58JON BLACKIE M M40 147
148279 04:26:2004:26:01SIMON WILLIAMS M M50 148
149192 04:27:1104:27:08NICK NICHOLSON M M40 100 MARATHON CLUB 149
150250 04:27:1504:26:53JACQUI THIJM F W45 150
151101 04:28:3504:28:18ANA-MARIA GREEN F W45 TUNBRIDGE WELLS HARRIERS 151
15266 04:29:5404:29:35MEGAN DAVIES F SW 152
153216 04:31:2104:31:01LINDSAY REISSER-WESTON F W45 153
15444 04:31:2504:30:55PAULETTE CHARLERY F W35 154
1554 04:32:4204:32:27GERRY ALGER M M60 BLACKHEATH AND BROMLEY HARRIERS 155
15684 04:32:5904:32:32COSTAS FLEVAS M SM 100 MARATHON CLUB 156
157269 04:33:0004:32:33JULIA WELLINGS F W35 100 MARATHON CLUB 157
158318 04:33:4504:33:14PASCALE MARONEY F W35 Good Gym 158
159202 04:34:2104:33:56DAVID PEDRICK M SM 159
16065 04:37:0004:36:51GARETH DAVIES M SM 160
16137 04:37:1604:36:47MARTIN RICHARD BUSH M M50 100 MARATHON CLUB 161
162264 04:37:3604:37:23MICHAEL WARNER M M60 WOKING AC 162
16310 04:38:2404:38:00PETE ATKINSON M M40 PETTS WOOD RUNNERS 163
164181 04:38:4904:38:25JUSTIN MOORE M M40 164
16532 04:39:1204:38:41NATHAN BROWNE M M40 165
166158 04:39:5004:39:25STEPHEN LONERGAN M M40 166
16791 04:40:0104:39:34WENDY GAINHAM F W45 167
168133 04:43:0404:42:56SHARIEF IBRAHIM M M60 WALTON AC 168
169170 04:43:3104:43:27LEIGH MARTIN M M40 169
170144 04:44:0704:43:38RICHARD KEATLEY M SM TEIGNBRIDGE TROTTERS 170
171112 04:44:2004:44:06ELAINE HARRIS F SW 171
1722 04:44:2304:44:19DARREL ADAMS M M40 ISTEAD AND IFIELD HARRIERS 172
173267 04:44:4504:44:31CALUM WATSON M M40 173
174199 04:44:5004:44:36TAMSIN PASSMORE F W45 174
17564 04:45:3504:45:19GARETH DAVIES M M50 100 MARATHON CLUB 175
176106 04:46:5004:46:23JOHANNA HADLEY F SW DUNSTABLE ROAD RUNNERS 176
177153 04:46:5204:46:24ROBERT LEE M SM DUNSTABLE ROAD RUNNERS 177
17852 04:47:0904:46:49JAMES COOPER M SM 178
1799 04:47:2304:47:07JENNI ARNOLD F SW 179
18097 04:47:2404:47:08TOM GOODALL M SM 180
18187 04:47:2804:46:59MARK FULLER M M50 UKRUNCHAT 181
182195 04:47:3504:47:13IAN ODGERS M M40 DEREHAM RUNNERS 182
18381 04:48:0604:47:48SIMON FAWCETT M SM 183
184233 04:48:4504:48:27ANN SHELLARD F W45 WIMBLEDON WINDMILERS 184
1851 04:49:0304:48:56NORMAN ABADIANO M M40 ORPINGTON ROAD RUNNERS 185
18622 04:49:4004:49:30ANITA BERWICK F W35 GADE VALLEY HARIERS 186
18790 04:50:5304:50:28EMMA GABB F W35 187
18885 04:51:0304:50:29PETER FROST M M50 188
18913 04:51:0504:50:47PATSY BAKER F W45 100 MARATHON CLUB 189
19021 04:51:0704:50:48SHELLEY BENNETT F W45 THAME RUNNERS 190
191247 04:51:0804:50:38VICTORIA TANTONY F W35 191
192240 04:51:4804:51:37RICHARD STATON M M40 FARNHAM TRIATHLON CLUB 192
19375 04:53:3304:53:19MARTIN DOWLE M M50 193
194203 04:53:4904:53:31DAVE PENDLETON M M50 HASTINGS RUNNERS 194
1958 04:53:5804:53:54TOM ARNOLD M SM 195
19627 04:53:5904:53:39WILLIAM BOWEN-DAVIES M M40 FLYERS SOUTHEND 196
197190 04:54:0004:53:41GERT NEL M M40 FLYERS SOUTHEND 197
19867 04:55:3404:55:18MARY DAVIS F W45 VEGETARIAN CYCLING & AC 198
199220 04:55:3404:55:13IAN ROBERTSON M M40 CHICHESTER RUNNERS & AC 199
200151 04:56:3804:56:27KIERRAN LAKELAND M SM HEDGE END RUNNING CLUB 200
20171 04:57:0604:56:48MURIEL DEMARCUS F W35 201
202142 05:00:2705:00:08TIM JURY M M60 HASTINGS RUNNERS 202
203262 05:00:4605:00:26LYNETTE VOIGT F W55 203
204122 05:00:4705:00:28JON HIBBEN M M40 FLYERS SOUTHEND 204
20538 05:01:4005:01:13TESSA CAMPBELL F W55 WEST4HARRIERS 205
206198 05:01:4405:01:27NEIL PAGET M M60 206
207166 05:04:2005:04:01PAUL MANSFIELD M SM TRAIL RUNNING ASSOCIATION 207
208104 05:04:3705:04:18MICHELLE GRUDZINSKI F W35 NORTH HERTS ROAD RUNNERS 208
20992 05:04:5405:04:43GEMMA GILBERT F SW IPSWICH JAFFA 209
210117 05:05:1405:04:51GARETH HAY M SM 210
211225 05:05:3605:05:09JAYNE RUDOLPH F W35 211
212210 05:09:4205:09:11CHRIS PREVETT M M40 212
213242 05:12:4705:12:20MAUREEN SU F W35 RUN THROUGH 213
214186 05:13:0705:12:46MARY MURPHY F W55 100 MARATHON CLUB 214
215302 05:13:2605:13:05JEFF SPRINGFORD M M40 215
216109 05:15:3605:15:12SUE HARGADON F W55 IPSWICH TRIATHLON CLUB 216
21772 05:17:1105:16:42LOUISE DIEZ F W45 FITTLEWORTH FLYERS 217
218172 05:17:1205:16:42THERESA MASSEY F W35 100 MARATHON CLUB 218
219161 05:17:1405:16:52ROY LUCKMUN M M50 219
220214 05:17:5805:17:36PRASHAN RAMPERSAD M M40 220
221176 05:20:3405:20:20MARK MCLOUGHLIN M M50 LEIGHTON FUN RUNNERS 221
222143 05:27:5305:27:25ELENI KASAPI F W45 GCRC 222
223121 05:32:0005:31:43LISA HEWITT-COTTOM F W35 100 MARATHON CLUB 223
22473 05:32:0005:31:39ROBERT DONOVAN M M70 PEEL ROAD RUNNERS 224
225261 05:33:1005:32:44ZOPHANIE VAZQUEZ-HOWARD F W45 WAVERLEY HARRIERS 225
22668 05:33:1005:32:51EMMA DAVIS F W45 LEIGHTON FUN RUNNERS 226
227234 05:33:2305:32:54JAGJIT SINGH M M50 BA LONDON CLUB 227
22863 05:33:2305:32:54DAVID DAVIDSON M M50 PITSEA RC 228
229184 05:34:1005:33:51LESLEY MUGGERIDGE F W45 LEIGHTON FUN RUNNERS 229
230193 05:34:1005:33:45CHARMAINE NICKS F W45 230
231179 05:43:2505:43:05PETER MIZZI M M50 231
232131 05:51:4805:51:25KIM HOWARD F W55 232
23333 05:51:4805:51:26OLIVER BROWNE M SM ILFORD AC 233
234201 06:00:3406:00:08JOSEPHINE PEASLAND F W45 WESTBOURNE RC 234
23545 06:11:0306:10:38GRACE CHARLEY F W35 COLLINGWOOD AC 235
23653 06:11:0806:10:43PAUL COOPER M M40 COLLINGWOOD AC 236
23736 06:11:1606:10:46ANNA BURNS F W35 237
238320 06:17:1206:17:10MALCOLM BROOKES M M70 100 MARATHON CLUB 238